Bisham Weather



Bisham's Current Weather

Temprature 23.065o clear sky

clear sky

Rain: 0 %

Min Temprature23.065o
Max Temprature23.065o
Humidity49
Wind Speed1.98 m/h
Sun Rise05:53:47
Sun Set18:13:27
Current Time: 18-Sep-2019 16:15:25
Lat/Lon: 35.01, 72.71




Bisham's Geo Location



Bisham's Weather Forecast

Time Overall Temp Min Temp Max Temp Humidity Wind Speed Rain
18-Sep-2019 (Wed)
17:00:00 clear sky 21.420 21.420 23.065 49 1.98 m/h 0 %
20:00:00 clear sky 15.510 15.510 16.744 64 2.41 m/h 0 %
23:00:00 clear sky 15.890 15.890 16.715 52 2.53 m/h 0 %
19-Sep-2019 (Thu)
02:00:00 clear sky 15.740 15.740 16.150 49 2.31 m/h 0 %
05:00:00 clear sky 15.450 15.450 15.450 50 2.27 m/h 0 %
08:00:00 clear sky 20.450 20.450 20.450 48 0.29 m/h 0 %
11:00:00 clear sky 23.350 23.350 23.350 42 3.02 m/h 0 %
14:00:00 clear sky 23.950 23.950 23.950 44 3.17 m/h 0 %
17:00:00 clear sky 22.150 22.150 22.150 53 2.08 m/h 0 %
20:00:00 clear sky 16.270 16.270 16.270 71 2.58 m/h 0 %
23:00:00 clear sky 15.838 15.838 15.838 66 2.15 m/h 0 %
20-Sep-2019 (Fri)
02:00:00 clear sky 15.256 15.256 15.256 62 2.31 m/h 0 %
05:00:00 clear sky 14.763 14.763 14.763 64 2.48 m/h 0 %
08:00:00 clear sky 19.950 19.950 19.950 52 0.35 m/h 0 %
11:00:00 clear sky 22.950 22.950 22.950 48 2.9 m/h 0 %
14:00:00 scattered clouds 23.850 23.850 23.850 48 3.25 m/h 0 %
17:00:00 scattered clouds 22.150 22.150 22.150 57 2.46 m/h 0 %
20:00:00 clear sky 16.050 16.050 16.050 83 1.49 m/h 0 %
23:00:00 light rain 15.750 15.750 15.750 72 1.98 m/h 44 %
21-Sep-2019 (Sat)
02:00:00 clear sky 15.050 15.050 15.050 65 2.14 m/h 0 %
05:00:00 clear sky 14.554 14.554 14.554 67 2.23 m/h 0 %
08:00:00 clear sky 19.550 19.550 19.550 59 0.66 m/h 0 %
11:00:00 clear sky 23.050 23.050 23.050 51 2.77 m/h 0 %
14:00:00 scattered clouds 24.350 24.350 24.350 50 3.55 m/h 0 %
17:00:00 scattered clouds 22.250 22.250 22.250 60 2.11 m/h 0 %
20:00:00 clear sky 16.750 16.750 16.750 80 2.02 m/h 0 %
23:00:00 clear sky 16.135 16.135 16.135 72 1.91 m/h 0 %
22-Sep-2019 (Sun)
02:00:00 clear sky 15.550 15.550 15.550 67 1.92 m/h 0 %
05:00:00 clear sky 15.086 15.086 15.086 69 2.21 m/h 0 %
08:00:00 clear sky 20.291 20.291 20.291 60 0.59 m/h 0 %
11:00:00 clear sky 23.803 23.803 23.803 50 2.83 m/h 0 %
14:00:00 clear sky 25.150 25.150 25.150 48 3.28 m/h 0 %
17:00:00 clear sky 23.350 23.350 23.350 56 2.06 m/h 0 %
20:00:00 clear sky 17.525 17.525 17.525 77 1.93 m/h 0 %
23:00:00 clear sky 16.882 16.882 16.882 75 1.6 m/h 0 %
23-Sep-2019 (Mon)
02:00:00 clear sky 16.403 16.403 16.403 73 2.01 m/h 0 %
05:00:00 clear sky 15.877 15.877 15.877 73 2.05 m/h 0 %
08:00:00 clear sky 20.744 20.744 20.744 61 0.04 m/h 0 %
11:00:00 clear sky 23.877 23.877 23.877 53 2.83 m/h 0 %
14:00:00 broken clouds 24.204 24.204 24.204 54 2.82 m/h 0 %

Famous Cities (61)